Time;durP1;ratioP1;P1;durP2;ratioP2;P2;SDS_P1;SDS_P2;PMS_P1;PMS_P2;Temp;Humidity;BMP_temperature;BMP_pressure;BME280_temperature;BME280_humidity;BME280_pressure;Samples;Min_cycle;Max_cycle;Signal;HPM_P1;HPM_P2
2023/09/13 00:00:25;;;;;;;;;;;26.10;74.60;;;;;;5083458;28;19923;-36
2023/09/13 00:02:51;;;;;;;;;;;26.10;74.60;;;;;;5093229;28;19995;-35
2023/09/13 00:05:17;;;;;;;;;;;26.10;74.60;;;;;;5097985;28;19923;-36
2023/09/13 00:07:43;;;;;;;;;;;26.10;74.50;;;;;;5104044;28;19950;-36
2023/09/13 00:10:09;;;;;;;;;;;26.10;74.60;;;;;;5088057;28;19916;-36
2023/09/13 00:12:35;;;;;;;;;;;26.10;74.60;;;;;;5092621;28;19916;-36
2023/09/13 00:15:01;;;;;;;;;;;26.10;74.50;;;;;;5089617;28;19985;-35
2023/09/13 00:17:27;;;;;;;;;;;26.10;74.50;;;;;;5093953;28;19916;-35
2023/09/13 00:19:58;;;;;;;;;;;26.10;74.40;;;;;;5093842;28;19931;-36
2023/09/13 00:22:26;;;;;;;;;;;26.10;74.30;;;;;;5091946;28;19917;-36
2023/09/13 00:24:52;;;;;;;;;;;26.10;74.30;;;;;;5093649;28;19916;-35
2023/09/13 00:27:18;;;;;;;;;;;26.10;74.30;;;;;;5090639;28;20539;-36
2023/09/13 00:29:43;;;;;;;;;;;26.10;74.20;;;;;;5098057;28;19915;-35
2023/09/13 00:32:09;;;;;;;;;;;26.10;74.30;;;;;;5088553;28;19924;-36
2023/09/13 00:34:35;;;;;;;;;;;26.10;74.20;;;;;;5094790;28;19927;-35
2023/09/13 00:37:01;;;;;;;;;;;26.10;74.20;;;;;;5089237;28;19962;-35
2023/09/13 00:39:27;;;;;;;;;;;26.10;74.20;;;;;;5104414;28;20046;-35
2023/09/13 00:41:53;;;;;;;;;;;26.10;74.20;;;;;;5102800;28;19926;-36
2023/09/13 00:44:19;;;;;;;;;;;26.10;74.20;;;;;;5086824;28;19912;-35
2023/09/13 00:46:45;;;;;;;;;;;26.10;74.20;;;;;;5086245;28;19909;-36
2023/09/13 00:49:11;;;;;;;;;;;26.10;74.20;;;;;;5072664;28;20693;-36
2023/09/13 00:51:37;;;;;;;;;;;26.10;74.20;;;;;;5089449;28;19912;-36
2023/09/13 00:54:04;;;;;;;;;;;26.10;74.10;;;;;;5096634;28;20585;-36
2023/09/13 00:56:30;;;;;;;;;;;26.10;74.20;;;;;;5090207;28;19970;-36
2023/09/13 00:58:56;;;;;;;;;;;26.10;74.20;;;;;;5100919;28;19916;-35
2023/09/13 01:01:22;;;;;;;;;;;26.10;74.50;;;;;;5089929;28;19916;-36
2023/09/13 01:03:48;;;;;;;;;;;26.10;74.60;;;;;;5094026;28;19912;-36
2023/09/13 01:06:14;;;;;;;;;;;26.10;74.70;;;;;;5085462;28;19938;-36
2023/09/13 01:08:41;;;;;;;;;;;26.10;74.70;;;;;;5090494;28;19947;-36
2023/09/13 01:11:08;;;;;;;;;;;26.10;74.70;;;;;;5087591;28;19916;-36
2023/09/13 01:13:34;;;;;;;;;;;26.10;74.80;;;;;;5095777;28;20007;-35
2023/09/13 01:16:09;;;;;;;;;;;26.00;74.60;;;;;;5096229;28;19916;-36
2023/09/13 01:18:47;;;;;;;;;;;26.10;74.50;;;;;;5087883;28;20315;-35
2023/09/13 01:21:18;;;;;;;;;;;26.00;75.00;;;;;;5100539;28;19928;-35
2023/09/13 01:23:53;;;;;;;;;;;26.00;74.20;;;;;;5085542;28;19913;-36
2023/09/13 01:26:39;;;;;;;;;;;26.00;74.10;;;;;;5088505;28;19916;-36
2023/09/13 01:29:05;;;;;;;;;;;26.00;74.10;;;;;;5089559;28;20352;-35
2023/09/13 01:31:31;;;;;;;;;;;26.00;74.10;;;;;;5103579;28;19912;-35
2023/09/13 01:33:57;;;;;;;;;;;26.00;74.10;;;;;;5093972;28;20420;-35
2023/09/13 01:36:24;;;;;;;;;;;26.00;74.10;;;;;;5091834;28;20436;-35
2023/09/13 01:38:50;;;;;;;;;;;26.00;74.10;;;;;;5092539;28;19919;-36
2023/09/13 01:41:36;;;;;;;;;;;26.00;74.00;;;;;;5089665;28;19913;-36
2023/09/13 01:44:02;;;;;;;;;;;26.00;74.10;;;;;;5072866;28;19980;-35
2023/09/13 01:46:30;;;;;;;;;;;26.00;74.20;;;;;;5075477;28;19916;-35
2023/09/13 01:48:57;;;;;;;;;;;26.00;74.40;;;;;;5078836;28;19923;-35
2023/09/13 01:51:26;;;;;;;;;;;26.00;74.50;;;;;;5046860;28;19921;-36
2023/09/13 01:53:51;;;;;;;;;;;26.00;74.70;;;;;;5064840;28;19925;-36
2023/09/13 01:56:21;;;;;;;;;;;25.90;74.60;;;;;;5071320;28;20011;-36
2023/09/13 01:58:48;;;;;;;;;;;25.90;74.60;;;;;;5077040;28;20261;-35
2023/09/13 02:01:14;;;;;;;;;;;26.00;74.80;;;;;;5074316;28;19916;-36
2023/09/13 02:03:39;;;;;;;;;;;25.90;74.70;;;;;;5074171;28;19939;-35
2023/09/13 02:06:05;;;;;;;;;;;25.90;74.50;;;;;;5073212;28;20644;-36
2023/09/13 02:08:32;;;;;;;;;;;25.90;74.30;;;;;;5082141;28;19916;-35
2023/09/13 02:10:57;;;;;;;;;;;25.90;74.20;;;;;;5073423;28;19946;-36
2023/09/13 02:13:23;;;;;;;;;;;25.90;74.20;;;;;;5051506;28;19920;-35
2023/09/13 02:15:49;;;;;;;;;;;25.90;74.20;;;;;;5070518;28;19938;-35
2023/09/13 02:18:15;;;;;;;;;;;25.90;74.20;;;;;;5066726;28;19916;-36
2023/09/13 02:20:41;;;;;;;;;;;25.90;74.20;;;;;;5070685;28;19959;-36
2023/09/13 02:23:07;;;;;;;;;;;25.90;74.30;;;;;;5070593;28;19925;-35
2023/09/13 02:25:37;;;;;;;;;;;25.90;74.20;;;;;;5070478;28;20431;-35
2023/09/13 02:28:03;;;;;;;;;;;25.90;74.20;;;;;;5072100;28;19921;-35
2023/09/13 02:30:30;;;;;;;;;;;25.90;74.20;;;;;;5063925;28;19928;-36
2023/09/13 02:32:56;;;;;;;;;;;25.90;74.30;;;;;;5078673;28;19924;-35
2023/09/13 02:35:22;;;;;;;;;;;25.90;74.30;;;;;;5081023;28;20518;-35
2023/09/13 02:37:48;;;;;;;;;;;25.80;74.50;;;;;;5079783;28;19961;-36
2023/09/13 02:40:13;;;;;;;;;;;25.90;74.60;;;;;;5081103;28;19916;-36
2023/09/13 02:42:39;;;;;;;;;;;25.80;74.60;;;;;;5088110;28;20414;-36
2023/09/13 02:45:08;;;;;;;;;;;25.80;74.70;;;;;;5090662;28;20216;-36
2023/09/13 02:47:34;;;;;;;;;;;25.80;74.80;;;;;;5089942;28;20030;-35
2023/09/13 02:50:00;;;;;;;;;;;25.80;74.80;;;;;;5099294;28;19916;-35
2023/09/13 02:52:30;;;;;;;;;;;25.80;74.60;;;;;;5101304;28;19981;-36
2023/09/13 02:54:56;;;;;;;;;;;25.80;74.50;;;;;;5099320;28;20013;-36
2023/09/13 02:57:22;;;;;;;;;;;25.80;74.40;;;;;;5100731;28;19916;-36
2023/09/13 02:59:48;;;;;;;;;;;25.80;74.40;;;;;;5094034;28;19916;-35
2023/09/13 03:02:14;;;;;;;;;;;25.80;74.40;;;;;;5100936;28;19951;-36
2023/09/13 03:04:40;;;;;;;;;;;25.80;74.40;;;;;;5100844;28;19916;-36
2023/09/13 03:07:06;;;;;;;;;;;25.80;74.40;;;;;;5085867;28;20563;-36
2023/09/13 03:09:32;;;;;;;;;;;25.80;74.40;;;;;;5100215;28;19950;-35
2023/09/13 03:11:58;;;;;;;;;;;25.80;74.40;;;;;;5093344;28;19923;-35
2023/09/13 03:14:24;;;;;;;;;;;25.80;74.40;;;;;;5101312;28;19963;-35
2023/09/13 03:16:50;;;;;;;;;;;25.80;74.40;;;;;;5092989;28;19912;-36
2023/09/13 03:19:16;;;;;;;;;;;25.70;74.40;;;;;;5093965;28;19951;-35
2023/09/13 03:21:44;;;;;;;;;;;25.70;74.50;;;;;;5099107;28;19920;-35
2023/09/13 03:24:10;;;;;;;;;;;25.70;74.50;;;;;;5093271;28;19923;-35
2023/09/13 03:26:36;;;;;;;;;;;25.70;74.60;;;;;;5094197;28;19916;-35
2023/09/13 03:29:02;;;;;;;;;;;25.70;74.60;;;;;;5092002;28;19916;-35
2023/09/13 03:31:28;;;;;;;;;;;25.70;74.60;;;;;;5101276;28;19916;-35
2023/09/13 03:33:55;;;;;;;;;;;25.70;74.70;;;;;;5099993;28;19991;-35
2023/09/13 03:36:21;;;;;;;;;;;25.70;74.70;;;;;;5098245;28;19923;-35
2023/09/13 03:38:47;;;;;;;;;;;25.70;74.50;;;;;;5101411;28;19916;-35
2023/09/13 03:41:13;;;;;;;;;;;25.70;74.50;;;;;;5097794;28;19944;-35
2023/09/13 03:43:39;;;;;;;;;;;25.60;74.50;;;;;;5096355;28;19983;-35
2023/09/13 03:46:05;;;;;;;;;;;25.60;74.60;;;;;;5100721;28;19912;-35
2023/09/13 03:48:31;;;;;;;;;;;25.60;74.60;;;;;;5097586;28;19947;-35
2023/09/13 03:50:57;;;;;;;;;;;25.60;74.60;;;;;;5100263;28;19916;-35
2023/09/13 03:53:24;;;;;;;;;;;25.60;74.60;;;;;;5093159;28;19925;-34
2023/09/13 03:55:50;;;;;;;;;;;25.60;74.70;;;;;;5095203;28;20007;-35
2023/09/13 03:58:16;;;;;;;;;;;25.60;74.70;;;;;;5096022;28;19923;-35
2023/09/13 04:00:42;;;;;;;;;;;25.60;74.60;;;;;;5086482;28;19983;-35
2023/09/13 04:03:08;;;;;;;;;;;25.60;74.70;;;;;;5103345;28;19921;-35
2023/09/13 04:05:34;;;;;;;;;;;25.60;74.70;;;;;;5103835;28;19916;-35
2023/09/13 04:07:59;;;;;;;;;;;25.60;74.80;;;;;;5089545;28;19917;-40
2023/09/13 04:10:25;;;;;;;;;;;25.60;74.80;;;;;;5099515;28;19939;-36
2023/09/13 04:12:51;;;;;;;;;;;25.60;74.90;;;;;;5085935;28;19916;-35
2023/09/13 04:15:17;;;;;;;;;;;25.60;74.90;;;;;;5086425;28;19921;-35
2023/09/13 04:17:43;;;;;;;;;;;25.50;74.80;;;;;;5086017;28;19995;-35
2023/09/13 04:20:09;;;;;;;;;;;25.60;75.00;;;;;;5086592;28;19939;-35
2023/09/13 04:22:35;;;;;;;;;;;25.50;74.80;;;;;;5086358;28;19913;-35
2023/09/13 04:25:02;;;;;;;;;;;25.50;74.90;;;;;;5091095;28;19923;-35
2023/09/13 04:27:27;;;;;;;;;;;25.50;74.80;;;;;;5092806;28;19977;-35
2023/09/13 04:29:56;;;;;;;;;;;25.50;74.70;;;;;;5092206;28;20039;-35
2023/09/13 04:32:24;;;;;;;;;;;25.50;74.80;;;;;;5092388;28;19979;-35
2023/09/13 04:34:53;;;;;;;;;;;25.50;74.80;;;;;;5086008;28;19928;-35
2023/09/13 04:37:19;;;;;;;;;;;25.50;74.80;;;;;;5098982;28;19934;-35
2023/09/13 04:39:45;;;;;;;;;;;25.40;74.70;;;;;;5091634;28;19922;-35
2023/09/13 04:42:11;;;;;;;;;;;25.50;74.90;;;;;;5085855;28;19991;-35
2023/09/13 04:44:37;;;;;;;;;;;25.40;74.80;;;;;;5085780;28;19916;-35
2023/09/13 04:47:03;;;;;;;;;;;25.40;74.90;;;;;;5092388;28;20150;-35
2023/09/13 04:49:29;;;;;;;;;;;25.40;74.80;;;;;;5097687;28;19912;-35
2023/09/13 04:51:55;;;;;;;;;;;25.40;74.90;;;;;;5092777;28;19987;-35
2023/09/13 04:54:22;;;;;;;;;;;25.40;74.90;;;;;;5091979;28;19971;-35
2023/09/13 04:56:48;;;;;;;;;;;25.40;75.00;;;;;;5092809;28;20426;-35
2023/09/13 04:59:14;;;;;;;;;;;25.40;75.70;;;;;;5097071;28;19980;-35
2023/09/13 05:01:40;;;;;;;;;;;25.40;75.10;;;;;;5101983;28;19916;-35
2023/09/13 05:04:06;;;;;;;;;;;25.40;75.00;;;;;;5103254;28;19958;-35
2023/09/13 05:06:32;;;;;;;;;;;25.40;75.10;;;;;;5102708;28;19916;-35
2023/09/13 05:08:58;;;;;;;;;;;25.40;74.90;;;;;;5094509;28;19963;-35
2023/09/13 05:11:24;;;;;;;;;;;25.40;75.00;;;;;;5095906;28;19916;-35
2023/09/13 05:13:50;;;;;;;;;;;25.40;75.00;;;;;;5069798;28;20511;-35
2023/09/13 05:16:19;;;;;;;;;;;25.40;74.90;;;;;;5085101;28;19916;-36
2023/09/13 05:18:46;;;;;;;;;;;25.40;75.00;;;;;;5084700;28;19922;-35
2023/09/13 05:21:11;;;;;;;;;;;25.30;75.10;;;;;;5087933;28;20392;-35
2023/09/13 05:23:37;;;;;;;;;;;25.30;74.90;;;;;;5087541;28;19916;-35
2023/09/13 05:26:03;;;;;;;;;;;25.30;75.00;;;;;;5090893;28;20780;-35
2023/09/13 05:28:33;;;;;;;;;;;25.30;75.00;;;;;;5088950;28;19924;-35
2023/09/13 05:30:59;;;;;;;;;;;25.30;75.00;;;;;;5100836;28;19951;-35
2023/09/13 05:33:26;;;;;;;;;;;25.30;75.00;;;;;;5091662;28;19920;-36
2023/09/13 05:35:52;;;;;;;;;;;25.30;75.10;;;;;;5074204;28;19917;-36
2023/09/13 05:38:18;;;;;;;;;;;25.30;75.10;;;;;;5087868;28;19938;-36
2023/09/13 05:40:44;;;;;;;;;;;25.30;75.20;;;;;;5100625;28;19971;-36
2023/09/13 05:43:10;;;;;;;;;;;25.30;75.20;;;;;;5099152;28;19921;-35
2023/09/13 05:45:35;;;;;;;;;;;25.30;75.20;;;;;;5084734;28;20055;-35
2023/09/13 05:48:02;;;;;;;;;;;25.20;75.20;;;;;;5092658;28;19917;-35
2023/09/13 05:50:28;;;;;;;;;;;25.20;75.20;;;;;;5102360;28;19916;-35
2023/09/13 05:52:54;;;;;;;;;;;25.20;75.20;;;;;;5099064;28;19927;-36
2023/09/13 05:55:20;;;;;;;;;;;25.20;75.10;;;;;;5100492;28;19916;-36
2023/09/13 05:57:46;;;;;;;;;;;25.20;75.20;;;;;;5100042;28;19919;-34
2023/09/13 06:00:13;;;;;;;;;;;25.20;75.20;;;;;;5091736;28;20377;-36
2023/09/13 06:02:39;;;;;;;;;;;25.20;75.10;;;;;;5091403;28;19967;-36
2023/09/13 06:05:05;;;;;;;;;;;25.20;75.20;;;;;;5093120;28;20707;-35
2023/09/13 06:07:31;;;;;;;;;;;25.20;75.30;;;;;;5100288;28;19912;-35
2023/09/13 06:09:58;;;;;;;;;;;25.20;75.20;;;;;;5100683;28;20792;-35
2023/09/13 06:12:25;;;;;;;;;;;25.20;75.10;;;;;;5096736;28;20006;-35
2023/09/13 06:14:53;;;;;;;;;;;25.20;75.20;;;;;;5094940;28;20304;-34
2023/09/13 06:17:19;;;;;;;;;;;25.20;75.20;;;;;;5092375;28;19951;-36
2023/09/13 06:19:45;;;;;;;;;;;25.20;75.20;;;;;;5094916;28;19925;-34
2023/09/13 06:22:11;;;;;;;;;;;25.20;75.40;;;;;;5092769;28;19916;-35
2023/09/13 06:24:37;;;;;;;;;;;25.20;75.40;;;;;;5088453;28;19916;-34
2023/09/13 06:27:03;;;;;;;;;;;25.10;75.30;;;;;;5084458;28;21609;-35
2023/09/13 06:29:29;;;;;;;;;;;25.10;75.30;;;;;;5095505;28;19919;-35
2023/09/13 06:31:55;;;;;;;;;;;25.10;75.40;;;;;;5086800;28;19916;-34
2023/09/13 06:34:21;;;;;;;;;;;25.10;75.40;;;;;;5079781;28;19939;-34
2023/09/13 06:36:48;;;;;;;;;;;25.10;75.50;;;;;;5093326;28;19916;-34
2023/09/13 06:39:14;;;;;;;;;;;25.10;75.40;;;;;;5094410;28;19912;-34
2023/09/13 06:41:40;;;;;;;;;;;25.10;75.50;;;;;;5091259;28;20389;-35
2023/09/13 06:44:09;;;;;;;;;;;25.10;75.40;;;;;;5095253;28;19916;-34
2023/09/13 06:46:38;;;;;;;;;;;25.10;76.10;;;;;;5103005;28;19938;-35
2023/09/13 06:49:04;;;;;;;;;;;25.10;75.40;;;;;;5092192;28;19920;-34
2023/09/13 06:51:30;;;;;;;;;;;25.10;75.50;;;;;;5090382;28;19965;-34
2023/09/13 06:53:56;;;;;;;;;;;25.10;75.40;;;;;;5094053;28;20663;-34
2023/09/13 06:56:22;;;;;;;;;;;25.10;75.50;;;;;;5095389;28;19987;-34
2023/09/13 06:58:47;;;;;;;;;;;25.00;75.30;;;;;;5087841;28;19938;-34
2023/09/13 07:01:13;;;;;;;;;;;25.00;75.30;;;;;;5083228;28;20019;-33
2023/09/13 07:03:39;;;;;;;;;;;25.00;75.40;;;;;;5091574;28;19923;-34
2023/09/13 07:06:05;;;;;;;;;;;25.00;75.30;;;;;;5094701;28;19977;-34
2023/09/13 07:08:31;;;;;;;;;;;25.00;75.50;;;;;;5088230;28;19984;-34
2023/09/13 07:10:57;;;;;;;;;;;25.00;75.50;;;;;;5092382;28;20017;-34
2023/09/13 07:13:23;;;;;;;;;;;25.00;75.50;;;;;;5099732;28;19979;-34
2023/09/13 07:15:49;;;;;;;;;;;25.00;75.60;;;;;;5096887;28;20643;-34
2023/09/13 07:18:15;;;;;;;;;;;25.00;75.70;;;;;;5094056;28;19916;-36
2023/09/13 07:20:41;;;;;;;;;;;25.00;75.70;;;;;;5087895;28;19919;-34
2023/09/13 07:23:07;;;;;;;;;;;25.00;75.60;;;;;;5092316;28;19920;-34
2023/09/13 07:25:33;;;;;;;;;;;25.00;75.70;;;;;;5087984;28;20420;-34
2023/09/13 07:28:00;;;;;;;;;;;25.00;75.60;;;;;;5088229;28;19923;-33
2023/09/13 07:30:26;;;;;;;;;;;25.00;75.60;;;;;;5096073;28;19923;-34
2023/09/13 07:32:52;;;;;;;;;;;25.00;75.70;;;;;;5100674;28;19990;-34
2023/09/13 07:35:20;;;;;;;;;;;25.00;75.70;;;;;;5094780;28;19975;-34
2023/09/13 07:37:46;;;;;;;;;;;25.00;75.70;;;;;;5094690;28;19912;-34
2023/09/13 07:40:12;;;;;;;;;;;25.00;75.60;;;;;;5100414;28;20019;-34
2023/09/13 07:42:38;;;;;;;;;;;25.00;75.60;;;;;;5068455;28;20387;-34
2023/09/13 07:45:04;;;;;;;;;;;25.00;75.70;;;;;;5086320;28;20021;-35
2023/09/13 07:47:30;;;;;;;;;;;25.00;75.80;;;;;;5087541;28;19916;-36
2023/09/13 07:49:59;;;;;;;;;;;24.90;75.70;;;;;;5091589;28;19923;-35
2023/09/13 07:52:25;;;;;;;;;;;24.90;75.80;;;;;;5089489;28;19923;-36
2023/09/13 07:54:51;;;;;;;;;;;24.90;75.70;;;;;;5090083;28;19924;-34
2023/09/13 07:57:17;;;;;;;;;;;24.90;75.80;;;;;;5086680;28;19982;-35
2023/09/13 07:59:43;;;;;;;;;;;25.00;76.00;;;;;;5087965;28;19923;-35
2023/09/13 08:02:09;;;;;;;;;;;24.90;75.90;;;;;;5103667;28;20568;-34
2023/09/13 08:04:35;;;;;;;;;;;24.90;76.00;;;;;;5097745;28;19916;-35
2023/09/13 08:07:21;;;;;;;;;;;24.90;75.90;;;;;;5103163;28;19981;-35
2023/09/13 08:09:46;;;;;;;;;;;24.90;76.00;;;;;;5002576;28;19968;-34
2023/09/13 08:12:12;;;;;;;;;;;24.90;75.80;;;;;;5003586;28;20345;-36
2023/09/13 08:14:38;;;;;;;;;;;24.90;75.90;;;;;;5003212;28;19933;-34
2023/09/13 08:17:04;;;;;;;;;;;24.90;75.90;;;;;;4986251;28;19922;-35
2023/09/13 08:19:30;;;;;;;;;;;24.90;75.80;;;;;;5003186;28;19917;-34
2023/09/13 08:21:56;;;;;;;;;;;24.90;75.80;;;;;;5003028;28;19918;-34
2023/09/13 08:24:22;;;;;;;;;;;24.90;75.90;;;;;;5001556;28;19924;-35
2023/09/13 08:26:48;;;;;;;;;;;24.80;75.90;;;;;;5003123;28;19917;-34
2023/09/13 08:29:13;;;;;;;;;;;24.90;75.90;;;;;;5002782;28;19957;-35
2023/09/13 08:31:39;;;;;;;;;;;24.90;75.90;;;;;;5002784;28;19924;-35
2023/09/13 08:34:05;;;;;;;;;;;24.80;75.80;;;;;;5002866;28;19925;-36
2023/09/13 08:36:33;;;;;;;;;;;24.80;75.90;;;;;;5003152;28;20040;-35
2023/09/13 08:38:59;;;;;;;;;;;24.90;76.10;;;;;;5002529;28;19941;-35
2023/09/13 08:41:25;;;;;;;;;;;24.80;76.50;;;;;;4998820;28;19922;-35
2023/09/13 08:43:51;;;;;;;;;;;24.80;76.10;;;;;;4982480;28;19914;-35
2023/09/13 08:46:17;;;;;;;;;;;24.80;76.10;;;;;;5004905;28;20374;-35
2023/09/13 08:48:42;;;;;;;;;;;24.80;76.10;;;;;;5052041;28;19917;-35
2023/09/13 08:51:08;;;;;;;;;;;24.80;76.10;;;;;;5055262;28;19920;-35
2023/09/13 08:53:34;;;;;;;;;;;24.80;76.10;;;;;;5072779;28;19924;-35
2023/09/13 08:56:00;;;;;;;;;;;24.80;76.10;;;;;;5078807;28;19923;-35
2023/09/13 08:58:26;;;;;;;;;;;24.80;76.10;;;;;;5075542;28;19917;-35
2023/09/13 09:00:52;;;;;;;;;;;24.80;76.10;;;;;;5074254;28;19916;-35
2023/09/13 09:03:18;;;;;;;;;;;24.80;76.10;;;;;;5076596;28;19923;-35
2023/09/13 09:05:44;;;;;;;;;;;24.80;76.10;;;;;;5082927;28;19956;-35
2023/09/13 09:08:10;;;;;;;;;;;24.80;76.00;;;;;;5075418;28;19917;-36
2023/09/13 09:10:36;;;;;;;;;;;24.80;76.10;;;;;;5082732;28;19923;-35
2023/09/13 09:13:02;;;;;;;;;;;24.80;76.00;;;;;;5081362;28;19917;-36
2023/09/13 09:15:27;;;;;;;;;;;24.80;76.10;;;;;;5076922;28;20395;-35
2023/09/13 09:17:55;;;;;;;;;;;24.80;76.30;;;;;;5062921;28;19923;-36
2023/09/13 09:20:24;;;;;;;;;;;24.80;76.20;;;;;;5082101;28;19916;-36
2023/09/13 09:22:50;;;;;;;;;;;24.80;76.20;;;;;;5078289;28;19916;-35
2023/09/13 09:25:15;;;;;;;;;;;24.80;76.30;;;;;;5075984;28;19916;-37
2023/09/13 09:27:41;;;;;;;;;;;24.80;76.40;;;;;;5082716;28;19955;-35
2023/09/13 09:30:07;;;;;;;;;;;24.70;76.40;;;;;;5073513;28;19921;-35
2023/09/13 09:32:35;;;;;;;;;;;24.70;76.40;;;;;;5082524;28;20304;-34
2023/09/13 09:35:01;;;;;;;;;;;24.70;76.30;;;;;;5081049;28;19924;-35
2023/09/13 09:37:33;;;;;;;;;;;24.80;76.50;;;;;;5053970;28;19990;-35
2023/09/13 09:39:59;;;;;;;;;;;24.70;76.40;;;;;;5079822;28;19912;-35
2023/09/13 09:42:25;;;;;;;;;;;24.70;76.40;;;;;;5088011;28;19924;-35
2023/09/13 09:44:51;;;;;;;;;;;24.70;76.30;;;;;;5093922;28;19925;-36
2023/09/13 09:47:17;;;;;;;;;;;24.70;76.30;;;;;;5095526;28;19937;-36
2023/09/13 09:49:43;;;;;;;;;;;24.70;76.30;;;;;;5102756;28;19979;-35
2023/09/13 09:52:10;;;;;;;;;;;24.70;76.20;;;;;;5094806;28;19942;-35
2023/09/13 09:54:39;;;;;;;;;;;24.70;76.30;;;;;;5072150;28;19919;-36
2023/09/13 09:57:05;;;;;;;;;;;24.70;76.30;;;;;;5075476;28;19927;-35
2023/09/13 09:59:31;;;;;;;;;;;24.70;76.40;;;;;;5090720;28;19975;-36
2023/09/13 10:01:57;;;;;;;;;;;24.70;76.30;;;;;;5074095;28;19958;-35
2023/09/13 10:04:23;;;;;;;;;;;24.70;76.40;;;;;;5102314;28;19919;-36
2023/09/13 10:06:56;;;;;;;;;;;24.70;76.40;;;;;;5094904;28;19924;-35
2023/09/13 10:09:22;;;;;;;;;;;24.70;76.50;;;;;;5095312;28;20422;-36
2023/09/13 10:11:55;;;;;;;;;;;24.70;76.50;;;;;;5101608;28;19955;-36
2023/09/13 10:14:27;;;;;;;;;;;24.70;76.50;;;;;;5097176;28;20000;-36
2023/09/13 10:16:54;;;;;;;;;;;24.70;76.70;;;;;;5099407;28;19913;-36
2023/09/13 10:19:19;;;;;;;;;;;24.70;76.60;;;;;;5083682;28;19987;-36
2023/09/13 10:21:45;;;;;;;;;;;24.60;76.60;;;;;;5094544;28;19969;-36
2023/09/13 10:24:11;;;;;;;;;;;24.70;76.50;;;;;;5095399;28;19917;-35
2023/09/13 10:26:37;;;;;;;;;;;24.60;76.50;;;;;;5077194;28;20048;-35
2023/09/13 10:29:15;;;;;;;;;;;24.70;76.50;;;;;;5096846;28;20337;-36
2023/09/13 10:31:42;;;;;;;;;;;24.60;76.40;;;;;;5073013;28;19967;-36
2023/09/13 10:34:08;;;;;;;;;;;24.70;76.40;;;;;;5075063;28;19967;-36
2023/09/13 10:36:36;;;;;;;;;;;24.60;76.40;;;;;;5095996;28;19939;-34
2023/09/13 10:39:08;;;;;;;;;;;24.60;76.40;;;;;;5098993;28;19951;-35
2023/09/13 10:41:35;;;;;;;;;;;24.60;76.40;;;;;;5101396;28;19916;-36
2023/09/13 10:44:01;;;;;;;;;;;24.60;76.50;;;;;;5100102;28;20404;-35
2023/09/13 10:46:27;;;;;;;;;;;24.60;76.60;;;;;;5088316;28;19916;-35
2023/09/13 10:48:53;;;;;;;;;;;24.60;76.60;;;;;;5084263;28;19924;-36
2023/09/13 10:51:19;;;;;;;;;;;24.60;76.60;;;;;;5076462;28;19916;-36
2023/09/13 10:53:45;;;;;;;;;;;24.60;76.60;;;;;;5100584;28;20027;-35
2023/09/13 10:56:12;;;;;;;;;;;24.60;76.70;;;;;;5087076;28;19912;-35
2023/09/13 10:58:38;;;;;;;;;;;24.60;76.80;;;;;;5083859;28;19916;-35
2023/09/13 11:01:04;;;;;;;;;;;24.60;76.80;;;;;;5092282;28;19938;-36
2023/09/13 11:03:30;;;;;;;;;;;24.60;76.90;;;;;;5076322;28;19920;-36
2023/09/13 11:05:57;;;;;;;;;;;24.60;76.80;;;;;;5099427;28;19916;-36
2023/09/13 11:08:33;;;;;;;;;;;24.60;76.70;;;;;;5073442;28;19913;-36
2023/09/13 11:11:12;;;;;;;;;;;24.60;76.70;;;;;;5092049;28;20408;-36
2023/09/13 11:13:37;;;;;;;;;;;24.60;76.70;;;;;;5093599;28;19920;-35
2023/09/13 11:16:03;;;;;;;;;;;24.60;76.70;;;;;;5089300;28;20008;-36
2023/09/13 11:18:50;;;;;;;;;;;24.60;76.60;;;;;;5034568;28;19948;-36
2023/09/13 11:21:26;;;;;;;;;;;24.60;76.70;;;;;;5028980;28;20024;-36
2023/09/13 11:23:52;;;;;;;;;;;24.60;76.70;;;;;;5024284;28;20060;-36
2023/09/13 11:26:37;;;;;;;;;;;24.60;76.70;;;;;;5012091;28;19980;-36
2023/09/13 11:29:15;;;;;;;;;;;24.50;76.60;;;;;;5036539;28;19956;-36
2023/09/13 11:31:55;;;;;;;;;;;24.60;76.80;;;;;;5021275;28;19924;-35
2023/09/13 11:34:22;;;;;;;;;;;24.60;76.80;;;;;;5025166;28;19925;-36
2023/09/13 11:37:06;;;;;;;;;;;24.60;76.90;;;;;;5024995;28;19924;-36
2023/09/13 11:39:32;;;;;;;;;;;24.50;76.80;;;;;;5030037;28;20541;-36
2023/09/13 11:41:58;;;;;;;;;;;24.50;76.80;;;;;;5022902;28;19922;-35
2023/09/13 11:44:24;;;;;;;;;;;24.50;76.90;;;;;;5029098;28;20008;-36
2023/09/13 11:46:54;;;;;;;;;;;24.50;77.00;;;;;;5030094;28;19956;-35
2023/09/13 11:49:20;;;;;;;;;;;24.50;76.80;;;;;;5032158;28;19917;-35
2023/09/13 11:54:15;;;;;;;;;;;24.50;76.70;;;;;;5032099;28;19931;-36
2023/09/13 11:56:43;;;;;;;;;;;24.50;76.80;;;;;;5080024;28;20007;-36
2023/09/13 11:59:09;;;;;;;;;;;24.50;76.80;;;;;;5098163;28;19938;-36
2023/09/13 12:01:36;;;;;;;;;;;24.50;76.80;;;;;;5098832;28;19909;-36
2023/09/13 12:04:04;;;;;;;;;;;24.50;76.70;;;;;;5081314;28;20292;-35
2023/09/13 12:06:31;;;;;;;;;;;24.50;76.70;;;;;;5099193;28;19915;-35
2023/09/13 12:08:57;;;;;;;;;;;24.50;76.70;;;;;;5089393;28;19920;-36
2023/09/13 12:11:23;;;;;;;;;;;24.50;76.80;;;;;;5097303;28;19924;-35
2023/09/13 12:13:50;;;;;;;;;;;24.50;76.80;;;;;;5089400;28;19921;-35
2023/09/13 12:16:16;;;;;;;;;;;24.50;76.90;;;;;;5093517;28;19938;-35
2023/09/13 12:18:42;;;;;;;;;;;24.50;76.90;;;;;;5087213;28;19948;-35
2023/09/13 12:21:08;;;;;;;;;;;24.50;76.90;;;;;;5092455;28;19920;-36
2023/09/13 12:23:36;;;;;;;;;;;24.50;76.90;;;;;;5103326;28;19916;-35
2023/09/13 12:26:07;;;;;;;;;;;24.50;77.00;;;;;;5103548;28;20284;-36
2023/09/13 12:28:39;;;;;;;;;;;24.50;77.10;;;;;;5099534;28;20659;-35
2023/09/13 12:31:06;;;;;;;;;;;24.50;77.00;;;;;;5094180;28;19916;-35
2023/09/13 12:33:32;;;;;;;;;;;24.40;76.90;;;;;;5085924;28;19927;-36
2023/09/13 12:35:58;;;;;;;;;;;24.50;77.00;;;;;;5076198;28;19920;-36
2023/09/13 12:38:24;;;;;;;;;;;24.50;76.90;;;;;;5069239;28;19920;-36
2023/09/13 12:40:52;;;;;;;;;;;24.40;76.90;;;;;;5093845;28;19940;-36
2023/09/13 12:43:19;;;;;;;;;;;24.50;76.90;;;;;;5085679;28;19924;-36
2023/09/13 12:45:45;;;;;;;;;;;24.50;76.90;;;;;;5093112;28;19916;-36
2023/09/13 12:48:12;;;;;;;;;;;24.40;76.80;;;;;;5089635;28;19939;-35
2023/09/13 12:50:38;;;;;;;;;;;24.40;76.90;;;;;;5095520;28;19916;-35
2023/09/13 12:53:04;;;;;;;;;;;24.50;76.90;;;;;;5094706;28;19922;-36
2023/09/13 12:55:30;;;;;;;;;;;24.40;76.90;;;;;;5094676;28;19912;-36
2023/09/13 12:58:04;;;;;;;;;;;24.40;76.90;;;;;;5093715;28;19931;-35
2023/09/13 13:00:31;;;;;;;;;;;24.40;77.00;;;;;;5085882;28;19912;-35
2023/09/13 13:02:57;;;;;;;;;;;24.40;77.00;;;;;;5088638;28;19916;-35
2023/09/13 13:05:23;;;;;;;;;;;24.50;77.20;;;;;;5089253;28;19916;-35
2023/09/13 13:07:48;;;;;;;;;;;24.50;77.20;;;;;;5102656;28;20011;-35
2023/09/13 13:10:15;;;;;;;;;;;24.40;77.20;;;;;;5088601;28;20741;-35
2023/09/13 13:12:42;;;;;;;;;;;24.40;77.20;;;;;;5104678;28;19916;-35
2023/09/13 13:15:08;;;;;;;;;;;24.40;77.30;;;;;;5100033;28;20427;-35
2023/09/13 13:17:34;;;;;;;;;;;24.40;77.20;;;;;;5085154;28;19923;-35
2023/09/13 13:20:07;;;;;;;;;;;24.40;77.30;;;;;;5086215;28;19912;-34
2023/09/13 13:22:33;;;;;;;;;;;24.40;77.20;;;;;;5099086;28;20027;-35
2023/09/13 13:24:58;;;;;;;;;;;24.40;77.20;;;;;;5100817;28;20454;-35
2023/09/13 13:27:28;;;;;;;;;;;24.40;77.10;;;;;;5093490;28;19919;-35
2023/09/13 13:29:54;;;;;;;;;;;24.40;77.10;;;;;;5086585;28;19920;-34
2023/09/13 13:32:20;;;;;;;;;;;24.40;77.20;;;;;;5103308;28;20634;-35
2023/09/13 13:34:47;;;;;;;;;;;24.50;77.20;;;;;;5094444;28;19924;-34
2023/09/13 13:37:13;;;;;;;;;;;24.40;77.10;;;;;;5098158;28;19916;-35
2023/09/13 13:39:39;;;;;;;;;;;24.40;77.20;;;;;;5089155;28;20007;-34
2023/09/13 13:42:05;;;;;;;;;;;24.50;77.30;;;;;;5091689;28;20576;-35
2023/09/13 13:44:33;;;;;;;;;;;24.40;77.30;;;;;;5084459;28;19935;-35
2023/09/13 13:46:59;;;;;;;;;;;24.50;77.40;;;;;;5084410;28;19919;-35
2023/09/13 13:49:25;;;;;;;;;;;24.50;77.40;;;;;;5089117;28;19912;-35
2023/09/13 13:51:50;;;;;;;;;;;24.50;77.50;;;;;;5094624;28;19913;-35
2023/09/13 13:54:18;;;;;;;;;;;24.50;77.40;;;;;;5101781;28;19928;-35
2023/09/13 13:56:44;;;;;;;;;;;24.40;77.40;;;;;;5099076;28;19916;-35
2023/09/13 13:59:10;;;;;;;;;;;24.50;77.40;;;;;;5096181;28;20629;-35
2023/09/13 14:01:36;;;;;;;;;;;24.50;77.40;;;;;;5097024;28;19983;-35
2023/09/13 14:04:02;;;;;;;;;;;24.50;77.30;;;;;;5096507;28;19934;-34
2023/09/13 14:06:28;;;;;;;;;;;24.50;77.30;;;;;;5097979;28;19916;-35
2023/09/13 14:08:54;;;;;;;;;;;24.50;77.30;;;;;;5097483;28;19927;-35
2023/09/13 14:11:20;;;;;;;;;;;24.50;78.00;;;;;;5092012;28;19916;-35
2023/09/13 14:13:46;;;;;;;;;;;24.50;77.30;;;;;;5085054;28;19924;-35
2023/09/13 14:16:11;;;;;;;;;;;24.50;77.20;;;;;;5090589;28;19923;-36